createdAt,value
2018-09-01T00:00:55.892Z,5.30
2018-09-01T00:03:24.220Z,5.43
2018-09-01T00:05:52.540Z,5.23
2018-09-01T00:08:21.874Z,4.63
2018-09-01T00:10:50.348Z,4.80
2018-09-01T00:13:18.668Z,5.20
2018-09-01T00:15:47.000Z,4.80
2018-09-01T00:18:15.324Z,5.80
2018-09-01T00:20:43.628Z,5.60
2018-09-01T00:23:11.995Z,4.47
2018-09-01T00:25:40.309Z,5.60
2018-09-01T00:28:08.620Z,5.30
2018-09-01T00:30:36.976Z,5.13
2018-09-01T00:33:05.267Z,4.33
2018-09-01T00:35:33.571Z,5.00
2018-09-01T00:38:07.449Z,4.53
2018-09-01T00:40:35.759Z,4.47
2018-09-01T00:43:04.081Z,5.60
2018-09-01T00:45:32.376Z,5.37
2018-09-01T00:48:00.704Z,4.87
2018-09-01T00:50:29.021Z,5.17
2018-09-01T00:52:57.341Z,4.47
2018-09-01T00:55:31.036Z,4.20
2018-09-01T00:57:59.739Z,4.87
2018-09-01T01:00:28.045Z,4.80
2018-09-01T01:02:56.372Z,4.67
2018-09-01T01:05:24.696Z,4.80
2018-09-01T01:07:53.036Z,4.13
2018-09-01T01:10:21.332Z,4.80
2018-09-01T01:12:49.893Z,4.37
2018-09-01T01:15:18.672Z,4.10
2018-09-01T01:17:47.016Z,3.77
2018-09-01T01:20:15.328Z,3.60
2018-09-01T01:22:43.668Z,3.70
2018-09-01T01:25:11.988Z,3.70
2018-09-01T01:27:40.315Z,3.60
2018-09-01T01:30:08.621Z,3.90
2018-09-01T01:32:37.125Z,3.70
2018-09-01T01:35:05.437Z,3.40
2018-09-01T01:37:35.340Z,3.50
2018-09-01T01:40:04.428Z,4.10
2018-09-01T01:42:33.152Z,3.70
2018-09-01T01:45:01.448Z,3.33
2018-09-01T01:47:29.783Z,5.70
2018-09-01T01:49:58.340Z,5.57
2018-09-01T01:52:26.659Z,4.50
2018-09-01T01:54:54.970Z,4.43
2018-09-01T01:57:23.291Z,3.50
2018-09-01T01:59:51.600Z,3.50
2018-09-01T02:02:19.936Z,3.67
2018-09-01T02:04:48.260Z,3.53
2018-09-01T02:07:16.576Z,3.40
2018-09-01T02:09:44.898Z,3.30
2018-09-01T02:12:13.220Z,3.20
2018-09-01T02:14:41.528Z,3.70
2018-09-01T02:17:09.892Z,4.70
2018-09-01T02:19:38.212Z,3.67
2018-09-01T02:22:06.509Z,3.97
2018-09-01T02:24:34.829Z,6.17
2018-09-01T02:27:03.128Z,4.67
2018-09-01T02:29:31.452Z,5.15
2018-09-01T02:31:59.784Z,4.83
2018-09-01T02:34:28.108Z,4.00
2018-09-01T02:36:56.424Z,4.60
2018-09-01T02:39:24.757Z,4.23
2018-09-01T02:41:53.140Z,3.83
2018-09-01T02:44:21.480Z,4.30
2018-09-01T02:46:49.772Z,4.23
2018-09-01T02:49:18.084Z,3.80
2018-09-01T02:51:46.392Z,5.00
2018-09-01T02:54:14.748Z,4.10
2018-09-01T02:56:43.057Z,4.73
2018-09-01T02:59:11.435Z,3.50
2018-09-01T03:01:39.746Z,3.97
2018-09-01T03:04:08.328Z,4.20
2018-09-01T03:06:58.412Z,4.07
2018-09-01T03:09:26.816Z,3.57
2018-09-01T03:11:56.320Z,4.40
2018-09-01T03:14:25.568Z,4.10
2018-09-01T03:16:54.745Z,3.77
2018-09-01T03:19:23.568Z,4.00
2018-09-01T03:21:51.869Z,3.70
2018-09-01T03:24:20.189Z,3.73
2018-09-01T03:26:48.504Z,3.90
2018-09-01T03:29:16.831Z,3.83
2018-09-01T03:31:45.128Z,4.30
2018-09-01T03:34:13.444Z,4.95
2018-09-01T03:36:41.756Z,3.80
2018-09-01T03:39:10.096Z,4.78
2018-09-01T03:41:39.280Z,4.83
2018-09-01T03:44:07.788Z,4.08
2018-09-01T03:46:36.121Z,4.95
2018-09-01T03:49:05.904Z,4.50
2018-09-01T03:51:34.208Z,4.90
2018-09-01T03:54:02.535Z,4.22
2018-09-01T03:56:30.860Z,5.05
2018-09-01T03:58:59.185Z,3.90
2018-09-01T04:01:27.499Z,4.50
2018-09-01T04:03:55.820Z,4.60
2018-09-01T04:06:24.337Z,4.87
2018-09-01T04:08:52.789Z,4.83
2018-09-01T04:11:21.136Z,4.97
2018-09-01T04:13:49.556Z,4.70
2018-09-01T04:16:17.860Z,5.25
2018-09-01T04:18:46.197Z,5.28
2018-09-01T04:21:14.516Z,5.25
2018-09-01T04:23:42.836Z,5.10
2018-09-01T04:26:11.144Z,6.42
2018-09-01T04:28:39.471Z,5.55
2018-09-01T04:31:07.768Z,5.78
2018-09-01T04:33:36.116Z,5.37
2018-09-01T04:36:04.420Z,5.15
2018-09-01T04:38:32.757Z,3.85
2018-09-01T04:41:01.076Z,4.20
2018-09-01T04:43:29.416Z,4.78
2018-09-01T04:45:57.732Z,5.17
2018-09-01T04:48:26.052Z,5.12
2018-09-01T04:50:54.348Z,6.22
2018-09-01T04:53:22.683Z,3.92
2018-09-01T04:55:51.012Z,5.00
2018-09-01T04:58:19.315Z,4.85
2018-09-01T05:00:47.655Z,4.45
2018-09-01T05:03:15.964Z,3.87
2018-09-01T05:05:44.316Z,5.22
2018-09-01T05:08:12.622Z,4.85
2018-09-01T05:10:40.960Z,5.85
2018-09-01T05:13:09.262Z,5.95
2018-09-01T05:15:37.584Z,7.83
2018-09-01T05:18:05.908Z,5.70
2018-09-01T05:20:34.232Z,5.17
2018-09-01T05:23:02.531Z,4.35
2018-09-01T05:25:30.856Z,5.78
2018-09-01T05:27:59.159Z,4.97
2018-09-01T05:30:27.480Z,4.80
2018-09-01T05:32:55.791Z,4.60
2018-09-01T05:35:24.120Z,5.20
2018-09-01T05:37:52.415Z,5.07
2018-09-01T05:40:20.796Z,4.83
2018-09-01T05:42:49.099Z,5.10
2018-09-01T05:45:17.717Z,5.40
2018-09-01T05:47:46.029Z,5.60
2018-09-01T05:50:14.365Z,6.00
2018-09-01T05:52:42.705Z,5.57
2018-09-01T05:55:11.037Z,6.78
2018-09-01T05:57:39.585Z,6.40
2018-09-01T06:00:08.514Z,5.97
2018-09-01T06:02:39.724Z,6.60
2018-09-01T06:05:09.369Z,7.15
2018-09-01T06:07:38.328Z,7.53
2018-09-01T06:10:06.847Z,8.10
2018-09-01T06:12:35.594Z,7.40
2018-09-01T06:15:03.937Z,7.45
2018-09-01T06:17:32.263Z,7.80
2018-09-01T06:20:00.604Z,8.28
2018-09-01T06:22:28.908Z,7.83
2018-09-01T06:24:57.959Z,6.75
2018-09-01T06:27:29.929Z,7.17
2018-09-01T06:30:00.695Z,6.40
2018-09-01T06:32:29.072Z,6.20
2018-09-01T06:34:58.915Z,5.35
2018-09-01T06:37:27.359Z,5.53
2018-09-01T06:39:55.694Z,6.35
2018-09-01T06:42:24.043Z,5.90
2018-09-01T06:44:52.363Z,5.95
2018-09-01T06:47:20.994Z,6.25
2018-09-01T06:49:50.263Z,6.65
2018-09-01T06:52:18.609Z,7.05
2018-09-01T06:54:46.936Z,6.43
2018-09-01T06:57:15.236Z,6.70
2018-09-01T06:59:43.568Z,6.37
2018-09-01T07:02:11.952Z,5.72
2018-09-01T07:04:40.304Z,6.05
2018-09-01T07:07:08.636Z,5.60
2018-09-01T07:09:36.957Z,5.73
2018-09-01T07:12:05.268Z,5.50
2018-09-01T07:14:34.351Z,6.42
2018-09-01T07:17:02.655Z,5.33
2018-09-01T07:19:30.948Z,4.63
2018-09-01T07:21:59.263Z,4.60
2018-09-01T07:24:27.564Z,5.30
2018-09-01T07:26:55.883Z,5.33
2018-09-01T07:29:24.197Z,5.20
2018-09-01T07:31:52.533Z,4.63
2018-09-01T07:34:20.842Z,4.63
2018-09-01T07:36:49.511Z,4.87
2018-09-01T07:39:17.823Z,3.63
2018-09-01T07:41:46.146Z,4.40
2018-09-01T07:44:14.448Z,3.47
2018-09-01T07:46:42.773Z,3.37
2018-09-01T07:49:11.076Z,3.77
2018-09-01T07:51:39.484Z,4.20
2018-09-01T07:54:07.820Z,3.93
2018-09-01T07:56:36.193Z,4.50
2018-09-01T07:59:04.555Z,4.57
2018-09-01T08:01:32.879Z,4.00
2018-09-01T08:04:01.255Z,4.33
2018-09-01T08:06:29.589Z,3.47
2018-09-01T08:08:57.912Z,3.50
2018-09-01T08:11:26.240Z,3.87
2018-09-01T08:13:54.663Z,4.13
2018-09-01T08:16:22.888Z,3.77
2018-09-01T08:18:51.190Z,4.30
2018-09-01T08:21:19.517Z,4.17
2018-09-01T08:23:47.826Z,5.73
2018-09-01T08:26:16.146Z,4.20
2018-09-01T08:28:44.448Z,4.10
2018-09-01T08:31:12.773Z,4.00
2018-09-01T08:33:41.331Z,3.73
2018-09-01T08:36:09.624Z,4.53
2018-09-01T08:38:38.236Z,4.77
2018-09-01T08:41:06.557Z,3.87
2018-09-01T08:43:37.263Z,4.33
2018-09-01T08:46:05.884Z,4.30
2018-09-01T08:48:34.180Z,5.70
2018-09-01T08:51:02.499Z,3.83
2018-09-01T08:53:30.799Z,4.23
2018-09-01T08:55:59.124Z,4.90
2018-09-01T08:58:27.488Z,4.30
2018-09-01T09:00:55.801Z,4.07
2018-09-01T09:03:24.104Z,4.70
2018-09-01T09:05:52.459Z,4.50
2018-09-01T09:08:20.763Z,4.70
2018-09-01T09:10:49.084Z,4.30
2018-09-01T09:13:17.380Z,4.57
2018-09-01T09:15:45.695Z,3.77
2018-09-01T09:18:14.032Z,4.13
2018-09-01T09:20:42.589Z,4.00
2018-09-01T09:23:11.040Z,3.43
2018-09-01T09:25:39.359Z,4.80
2018-09-01T09:28:07.660Z,4.10
2018-09-01T09:30:35.996Z,3.43
2018-09-01T09:33:04.300Z,3.90
2018-09-01T09:35:32.606Z,3.30
2018-09-01T09:38:00.928Z,4.23
2018-09-01T09:40:29.235Z,4.20
2018-09-01T09:42:57.576Z,4.40
2018-09-01T09:45:25.891Z,4.47
2018-09-01T09:47:54.218Z,4.83
2018-09-01T09:50:22.525Z,3.70
2018-09-01T09:52:50.851Z,4.27
2018-09-01T09:55:19.259Z,4.17
2018-09-01T09:57:47.576Z,4.50
2018-09-01T10:00:19.925Z,4.23
2018-09-01T10:02:48.282Z,4.40
2018-09-01T10:05:16.650Z,4.47
2018-09-01T10:07:44.971Z,4.00
2018-09-01T10:10:13.288Z,4.77
2018-09-01T10:12:41.915Z,4.20
2018-09-01T10:15:10.219Z,4.27
2018-09-01T10:17:38.538Z,4.60
2018-09-01T10:20:06.962Z,3.97
2018-09-01T10:22:35.205Z,3.87
2018-09-01T10:25:03.504Z,3.47
2018-09-01T10:27:31.856Z,4.00
2018-09-01T10:30:00.156Z,3.60
2018-09-01T10:32:28.507Z,3.80
2018-09-01T10:34:56.809Z,4.30
2018-09-01T10:37:25.136Z,2.93
2018-09-01T10:39:53.439Z,3.00
2018-09-01T10:42:21.764Z,3.67
2018-09-01T10:44:50.072Z,3.50
2018-09-01T10:47:18.401Z,3.90
2018-09-01T10:49:46.701Z,4.10
2018-09-01T10:52:15.022Z,4.00
2018-09-01T10:54:43.316Z,7.83
2018-09-01T10:57:11.891Z,9.23
2018-09-01T10:59:40.488Z,11.20
2018-09-01T11:02:08.724Z,9.97
2018-09-01T11:04:37.296Z,12.17
2018-09-01T11:07:05.688Z,8.40
2018-09-01T11:09:34.008Z,6.47
2018-09-01T11:12:02.720Z,4.80
2018-09-01T11:14:31.025Z,4.20
2018-09-01T11:16:59.692Z,5.00
2018-09-01T11:19:28.000Z,5.20
2018-09-01T11:21:56.332Z,4.47
2018-09-01T11:24:24.741Z,5.07
2018-09-01T11:26:53.644Z,4.33
2018-09-01T11:29:22.760Z,7.17
2018-09-01T11:31:51.983Z,10.00
2018-09-01T11:34:20.367Z,7.93
2018-09-01T11:36:48.712Z,5.57
2018-09-01T11:39:17.012Z,10.13
2018-09-01T11:41:45.320Z,5.30
2018-09-01T11:44:13.919Z,4.20
2018-09-01T11:46:42.244Z,4.00
2018-09-01T11:49:10.897Z,3.77
2018-09-01T11:51:39.845Z,4.30
2018-09-01T11:54:09.306Z,4.33
2018-09-01T11:56:37.856Z,3.93
2018-09-01T11:59:06.436Z,4.03
2018-09-01T12:01:34.993Z,3.77
2018-09-01T12:04:03.652Z,4.00
2018-09-01T12:06:32.452Z,4.17
2018-09-01T12:09:01.799Z,4.30
2018-09-01T12:11:30.236Z,4.13
2018-09-01T12:13:58.600Z,3.57
2018-09-01T12:16:28.191Z,4.60
2018-09-01T12:18:56.556Z,4.23
2018-09-01T12:21:25.585Z,2.43
2018-09-01T12:23:54.129Z,3.50
2018-09-01T12:26:22.432Z,3.10
2018-09-01T12:28:50.752Z,2.43
2018-09-01T12:31:19.061Z,2.63
2018-09-01T12:33:47.391Z,2.70
2018-09-01T12:36:15.811Z,3.30
2018-09-01T12:38:44.124Z,2.33
2018-09-01T12:41:12.421Z,2.60
2018-09-01T12:43:40.736Z,2.83
2018-09-01T12:46:09.239Z,3.97
2018-09-01T12:48:37.563Z,3.83
2018-09-01T12:51:05.930Z,3.37
2018-09-01T12:53:34.248Z,2.23
2018-09-01T12:56:02.556Z,2.73
2018-09-01T12:58:30.940Z,3.07
2018-09-01T13:00:59.261Z,2.33
2018-09-01T13:03:27.616Z,2.20
2018-09-01T13:05:55.972Z,3.10
2018-09-01T13:08:24.308Z,2.67
2018-09-01T13:10:52.652Z,3.70
2018-09-01T13:13:20.983Z,2.67
2018-09-01T13:15:49.288Z,2.93
2018-09-01T13:18:17.596Z,3.60
2018-09-01T13:20:45.908Z,2.13
2018-09-01T13:23:14.231Z,2.50
2018-09-01T13:25:42.544Z,2.40
2018-09-01T13:28:10.870Z,2.67
2018-09-01T13:30:39.177Z,2.97
2018-09-01T13:33:07.496Z,2.77
2018-09-01T13:35:35.799Z,2.30
2018-09-01T13:38:04.121Z,2.20
2018-09-01T13:40:32.424Z,2.80
2018-09-01T13:43:00.844Z,2.83
2018-09-01T13:45:29.176Z,2.70
2018-09-01T13:47:57.489Z,2.97
2018-09-01T13:50:25.792Z,3.03
2018-09-01T13:52:54.111Z,2.37
2018-09-01T13:55:22.425Z,3.50
2018-09-01T13:57:50.741Z,3.03
2018-09-01T14:00:19.037Z,2.30
2018-09-01T14:02:47.376Z,3.50
2018-09-01T14:05:15.720Z,3.00
2018-09-01T14:10:18.631Z,2.43
2018-09-01T14:12:47.008Z,2.83
2018-09-01T14:15:15.300Z,2.50
2018-09-01T14:17:43.604Z,2.67
2018-09-01T14:20:11.988Z,3.40
2018-09-01T14:22:40.297Z,2.60
2018-09-01T14:25:08.630Z,2.20
2018-09-01T14:27:36.951Z,2.00
2018-09-01T14:30:05.744Z,1.90
2018-09-01T14:32:34.051Z,2.87
2018-09-01T14:35:02.420Z,2.67
2018-09-01T14:37:30.716Z,2.50
2018-09-01T14:39:59.032Z,2.40
2018-09-01T14:42:27.351Z,1.87
2018-09-01T14:44:56.015Z,2.50
2018-09-01T14:47:24.402Z,2.70
2018-09-01T14:49:52.696Z,2.23
2018-09-01T14:52:21.017Z,2.20
2018-09-01T14:54:49.444Z,3.00
2018-09-01T14:57:17.768Z,2.70
2018-09-01T14:59:46.660Z,2.70
2018-09-01T15:02:14.989Z,3.27
2018-09-01T15:04:43.324Z,2.10
2018-09-01T15:07:11.667Z,2.87
2018-09-01T15:09:40.009Z,2.43
2018-09-01T15:12:08.344Z,2.47
2018-09-01T15:14:36.683Z,2.17
2018-09-01T15:17:05.085Z,2.20
2018-09-01T15:19:33.440Z,2.70
2018-09-01T15:22:01.757Z,3.00
2018-09-01T15:24:30.104Z,2.90
2018-09-01T15:26:58.415Z,3.00
2018-09-01T15:29:26.832Z,2.77
2018-09-01T15:31:55.184Z,3.50
2018-09-01T15:34:23.518Z,2.63
2018-09-01T15:36:51.865Z,2.40
2018-09-01T15:39:20.197Z,2.63
2018-09-01T15:41:48.512Z,2.43
2018-09-01T15:44:17.129Z,2.47
2018-09-01T15:46:45.827Z,2.83
2018-09-01T15:49:14.995Z,3.40
2018-09-01T15:51:43.449Z,3.10
2018-09-01T15:54:11.814Z,3.07
2018-09-01T15:56:40.156Z,3.70
2018-09-01T15:59:08.505Z,3.47
2018-09-01T16:01:36.816Z,3.03
2018-09-01T16:04:05.454Z,3.27
2018-09-01T16:06:33.792Z,3.43
2018-09-01T16:09:02.127Z,4.40
2018-09-01T16:11:30.658Z,3.40
2018-09-01T16:13:59.005Z,3.57
2018-09-01T16:16:27.321Z,3.60
2018-09-01T16:18:55.661Z,3.50
2018-09-01T16:21:23.984Z,3.60
2018-09-01T16:23:52.332Z,3.90
2018-09-01T16:26:20.682Z,3.40
2018-09-01T16:28:49.101Z,5.07
2018-09-01T16:31:17.452Z,4.00
2018-09-01T16:33:45.921Z,4.13
2018-09-01T16:36:14.388Z,3.90
2018-09-01T16:38:42.704Z,4.33
2018-09-01T16:41:11.076Z,4.73
2018-09-01T16:43:39.446Z,4.90
2018-09-01T16:46:07.784Z,4.50
2018-09-01T16:48:36.105Z,3.83
2018-09-01T16:51:04.644Z,4.90
2018-09-01T16:53:33.156Z,4.63
2018-09-01T16:56:01.512Z,4.80
2018-09-01T16:58:29.888Z,4.93
2018-09-01T17:00:58.322Z,4.50
2018-09-01T17:03:26.685Z,5.27
2018-09-01T17:05:55.037Z,5.60
2018-09-01T17:08:23.348Z,3.80
2018-09-01T17:10:51.696Z,5.07
2018-09-01T17:13:20.028Z,6.63
2018-09-01T17:15:48.364Z,4.30
2018-09-01T17:18:16.689Z,5.73
2018-09-01T17:20:45.345Z,4.77
2018-09-01T17:23:13.705Z,4.17
2018-09-01T17:25:42.075Z,5.57
2018-09-01T17:28:10.390Z,6.50
2018-09-01T17:30:38.962Z,4.87
2018-09-01T17:33:07.665Z,4.90
2018-09-01T17:35:36.005Z,5.97
2018-09-01T17:38:04.320Z,6.07
2018-09-01T17:40:32.641Z,5.63
2018-09-01T17:43:00.957Z,5.50
2018-09-01T17:45:29.298Z,4.80
2018-09-01T17:47:57.616Z,5.77
2018-09-01T17:50:25.933Z,5.57
2018-09-01T17:52:55.080Z,5.20
2018-09-01T17:55:23.410Z,5.60
2018-09-01T17:57:51.748Z,5.07
2018-09-01T18:00:20.085Z,4.90
2018-09-01T18:02:48.428Z,5.90
2018-09-01T18:05:16.784Z,5.40
2018-09-01T18:07:45.109Z,5.80
2018-09-01T18:10:13.488Z,5.47
2018-09-01T18:12:42.040Z,5.87
2018-09-01T18:15:10.349Z,6.20
2018-09-01T18:17:38.688Z,6.97
2018-09-01T18:20:07.004Z,7.10
2018-09-01T18:22:35.337Z,5.30
2018-09-01T18:25:03.749Z,6.33
2018-09-01T18:27:32.098Z,6.30
2018-09-01T18:30:00.405Z,6.57
2018-09-01T18:32:28.742Z,6.20
2018-09-01T18:34:57.050Z,4.60
2018-09-01T18:37:25.385Z,6.40
2018-09-01T18:39:53.757Z,5.67
2018-09-01T18:42:22.345Z,5.00
2018-09-01T18:44:50.668Z,6.70
2018-09-01T18:47:19.027Z,6.50
2018-09-01T18:49:47.344Z,6.67
2018-09-01T18:52:15.700Z,6.33
2018-09-01T18:54:44.059Z,5.70
2018-09-01T18:57:12.416Z,6.10
2018-09-01T18:59:40.746Z,5.60
2018-09-01T19:02:09.084Z,5.47
2018-09-01T19:04:37.414Z,6.30
2018-09-01T19:07:05.784Z,6.10
2018-09-01T19:09:34.153Z,6.60
2018-09-01T19:12:02.502Z,6.83
2018-09-01T19:14:30.817Z,6.40
2018-09-01T19:16:59.146Z,6.87
2018-09-01T19:19:27.451Z,5.63
2018-09-01T19:21:55.784Z,6.70
2018-09-01T19:24:24.183Z,5.53
2018-09-01T19:26:52.526Z,6.87
2018-09-01T19:29:20.869Z,6.90
2018-09-01T19:31:49.464Z,5.80
2018-09-01T19:34:17.888Z,6.17
2018-09-01T19:36:46.248Z,6.17
2018-09-01T19:39:14.572Z,7.27
2018-09-01T19:41:43.645Z,6.10
2018-09-01T19:44:11.964Z,6.60
2018-09-01T19:46:40.518Z,6.90
2018-09-01T19:49:09.297Z,6.43
2018-09-01T19:51:37.630Z,5.20
2018-09-01T19:54:06.198Z,6.00
2018-09-01T19:56:34.606Z,6.30
2018-09-01T19:59:02.941Z,5.80
2018-09-01T20:01:31.296Z,5.73
2018-09-01T20:03:59.616Z,5.73
2018-09-01T20:06:27.947Z,6.63
2018-09-01T20:08:56.293Z,6.37
2018-09-01T20:11:24.623Z,5.67
2018-09-01T20:13:53.007Z,6.00
2018-09-01T20:16:21.363Z,6.57
2018-09-01T20:18:49.731Z,5.70
2018-09-01T20:21:18.052Z,4.53
2018-09-01T20:23:46.404Z,5.30
2018-09-01T20:26:14.861Z,5.77
2018-09-01T20:28:43.188Z,4.97
2018-09-01T20:31:11.611Z,5.47
2018-09-01T20:33:39.952Z,5.10
2018-09-01T20:36:13.688Z,5.70
2018-09-01T20:38:42.033Z,5.57
2018-09-01T20:41:10.346Z,5.70
2018-09-01T20:43:38.679Z,4.93
2018-09-01T20:46:07.184Z,5.70
2018-09-01T20:48:35.516Z,5.80
2018-09-01T20:51:03.836Z,5.20
2018-09-01T20:53:32.313Z,5.57
2018-09-01T20:56:00.628Z,5.50
2018-09-01T20:58:28.981Z,5.47
2018-09-01T21:00:57.316Z,6.70
2018-09-01T21:03:25.673Z,5.93
2018-09-01T21:05:54.013Z,5.93
2018-09-01T21:08:22.373Z,7.33
2018-09-01T21:10:50.704Z,6.70
2018-09-01T21:13:19.036Z,6.07
2018-09-01T21:15:47.361Z,6.17
2018-09-01T21:18:15.767Z,5.67
2018-09-01T21:20:44.092Z,6.50
2018-09-01T21:23:12.482Z,6.47
2018-09-01T21:25:40.786Z,5.60
2018-09-01T21:28:09.120Z,6.17
2018-09-01T21:30:37.440Z,6.10
2018-09-01T21:33:05.821Z,5.50
2018-09-01T21:35:34.199Z,6.37
2018-09-01T21:38:02.528Z,6.90
2018-09-01T21:40:30.863Z,6.27
2018-09-01T21:42:59.326Z,5.80
2018-09-01T21:45:27.644Z,6.40
2018-09-01T21:47:55.978Z,6.27
2018-09-01T21:50:24.313Z,7.10
2018-09-01T21:52:52.657Z,5.90
2018-09-01T21:55:20.972Z,6.00
2018-09-01T21:57:49.312Z,6.00
2018-09-01T22:00:17.647Z,6.20
2018-09-01T22:02:46.248Z,6.60
2018-09-01T22:05:16.147Z,6.10
2018-09-01T22:07:44.779Z,6.67
2018-09-01T22:10:13.080Z,6.23
2018-09-01T22:12:41.447Z,4.60
2018-09-01T22:15:09.795Z,6.53
2018-09-01T22:17:38.104Z,6.70
2018-09-01T22:20:06.427Z,7.27
2018-09-01T22:22:34.748Z,5.90
2018-09-01T22:25:03.143Z,7.17
2018-09-01T22:27:31.500Z,7.20
2018-09-01T22:29:59.827Z,7.13
2018-09-01T22:32:28.131Z,6.00
2018-09-01T22:34:56.511Z,8.30
2018-09-01T22:37:24.813Z,8.47
2018-09-01T22:39:53.136Z,8.70
2018-09-01T22:42:21.431Z,8.30
2018-09-01T22:44:49.752Z,8.50
2018-09-01T22:47:21.488Z,7.10
2018-09-01T22:49:49.804Z,6.27
2018-09-01T22:52:18.112Z,8.37
2018-09-01T22:54:46.433Z,6.20
2018-09-01T22:57:14.736Z,6.97
2018-09-01T22:59:43.057Z,9.23
2018-09-01T23:02:11.355Z,8.63
2018-09-01T23:04:39.664Z,6.67
2018-09-01T23:07:07.994Z,9.60
2018-09-01T23:09:36.324Z,7.20
2018-09-01T23:12:04.640Z,8.67
2018-09-01T23:14:32.955Z,10.73
2018-09-01T23:17:01.281Z,11.57
2018-09-01T23:19:29.665Z,9.33
2018-09-01T23:21:58.008Z,12.10
2018-09-01T23:24:26.344Z,11.13
2018-09-01T23:26:54.653Z,13.20
2018-09-01T23:29:22.995Z,11.03
2018-09-01T23:31:51.304Z,13.70
2018-09-01T23:34:19.619Z,13.87
2018-09-01T23:36:48.020Z,11.37
2018-09-01T23:39:16.344Z,14.63
2018-09-01T23:41:44.829Z,14.93
2018-09-01T23:44:13.161Z,10.60
2018-09-01T23:46:41.468Z,11.37
2018-09-01T23:49:09.792Z,11.60
2018-09-01T23:51:38.112Z,9.07
2018-09-01T23:54:06.548Z,8.47
2018-09-01T23:56:34.960Z,8.67
2018-09-01T23:59:03.293Z,8.90
